sensor_id;sensor_type;location;lat;lon;timestamp;pressure;altitude;pressure_sealevel;temperature;humidity
39223;BME280;24936;46.328;11.026;2022-12-18T00:02:11;95282.00;;;-6.22;94.32
39223;BME280;24936;46.328;11.026;2022-12-18T00:04:36;95282.03;;;-6.25;94.12
39223;BME280;24936;46.328;11.026;2022-12-18T00:07:02;95278.50;;;-6.18;94.09
39223;BME280;24936;46.328;11.026;2022-12-18T00:09:28;95285.28;;;-6.13;94.35
39223;BME280;24936;46.328;11.026;2022-12-18T00:11:53;95276.00;;;-6.21;94.26
39223;BME280;24936;46.328;11.026;2022-12-18T00:14:19;95280.22;;;-6.18;94.23
39223;BME280;24936;46.328;11.026;2022-12-18T00:16:45;95278.56;;;-6.21;94.22
39223;BME280;24936;46.328;11.026;2022-12-18T00:19:12;95280.34;;;-6.29;94.19
39223;BME280;24936;46.328;11.026;2022-12-18T00:21:41;95290.69;;;-6.35;93.74
39223;BME280;24936;46.328;11.026;2022-12-18T00:24:07;95290.59;;;-6.29;93.93
39223;BME280;24936;46.328;11.026;2022-12-18T00:26:34;95286.38;;;-6.33;94.18
39223;BME280;24936;46.328;11.026;2022-12-18T00:29:12;95291.59;;;-6.39;93.70
39223;BME280;24936;46.328;11.026;2022-12-18T00:31:41;95295.94;;;-6.48;94.15
39223;BME280;24936;46.328;11.026;2022-12-18T00:34:10;95288.94;;;-6.33;94.30
39223;BME280;24936;46.328;11.026;2022-12-18T00:36:35;95292.22;;;-6.20;94.62
39223;BME280;24936;46.328;11.026;2022-12-18T00:39:03;95301.41;;;-6.05;94.20
39223;BME280;24936;46.328;11.026;2022-12-18T00:41:28;95293.84;;;-6.15;94.17
39223;BME280;24936;46.328;11.026;2022-12-18T00:44:15;95302.56;;;-6.28;94.15
39223;BME280;24936;46.328;11.026;2022-12-18T00:46:42;95302.66;;;-6.34;93.96
39223;BME280;24936;46.328;11.026;2022-12-18T00:49:08;95301.19;;;-6.55;94.34
39223;BME280;24936;46.328;11.026;2022-12-18T00:51:33;95294.50;;;-6.70;94.14
39223;BME280;24936;46.328;11.026;2022-12-18T00:53:59;95304.88;;;-6.83;93.91
39223;BME280;24936;46.328;11.026;2022-12-18T00:56:24;95305.91;;;-7.01;94.01
39223;BME280;24936;46.328;11.026;2022-12-18T00:58:50;95305.53;;;-6.67;94.17
39223;BME280;24936;46.328;11.026;2022-12-18T01:01:15;95316.09;;;-6.17;94.51
39223;BME280;24936;46.328;11.026;2022-12-18T01:03:40;95313.28;;;-6.71;94.05
39223;BME280;24936;46.328;11.026;2022-12-18T01:06:07;95317.44;;;-6.59;94.12
39223;BME280;24936;46.328;11.026;2022-12-18T01:08:34;95324.22;;;-6.55;94.08
39223;BME280;24936;46.328;11.026;2022-12-18T01:10:59;95333.47;;;-6.40;94.54
39223;BME280;24936;46.328;11.026;2022-12-18T01:13:24;95330.56;;;-6.12;94.47
39223;BME280;24936;46.328;11.026;2022-12-18T01:15:50;95332.59;;;-6.39;94.71
39223;BME280;24936;46.328;11.026;2022-12-18T01:18:17;95341.53;;;-6.79;94.00
39223;BME280;24936;46.328;11.026;2022-12-18T01:20:42;95344.94;;;-6.76;94.42
39223;BME280;24936;46.328;11.026;2022-12-18T01:23:08;95358.41;;;-6.61;94.74
39223;BME280;24936;46.328;11.026;2022-12-18T01:25:38;95358.19;;;-6.38;94.73
39223;BME280;24936;46.328;11.026;2022-12-18T01:28:03;95361.53;;;-6.31;94.45
39223;BME280;24936;46.328;11.026;2022-12-18T01:30:29;95359.34;;;-6.65;94.06
39223;BME280;24936;46.328;11.026;2022-12-18T01:32:54;95365.72;;;-7.16;93.83
39223;BME280;24936;46.328;11.026;2022-12-18T01:35:20;95371.63;;;-7.04;94.04
39223;BME280;24936;46.328;11.026;2022-12-18T01:37:45;95373.47;;;-7.22;93.80
39223;BME280;24936;46.328;11.026;2022-12-18T01:40:11;95382.09;;;-7.35;93.36
39223;BME280;24936;46.328;11.026;2022-12-18T01:42:37;95383.78;;;-7.31;93.79
39223;BME280;24936;46.328;11.026;2022-12-18T01:47:45;95390.59;;;-7.33;93.50
39223;BME280;24936;46.328;11.026;2022-12-18T01:50:23;95391.38;;;-7.19;94.00
39223;BME280;24936;46.328;11.026;2022-12-18T01:52:56;95395.47;;;-6.99;93.83
39223;BME280;24936;46.328;11.026;2022-12-18T01:55:29;95403.00;;;-6.82;93.96
39223;BME280;24936;46.328;11.026;2022-12-18T01:57:57;95410.75;;;-6.88;93.89
39223;BME280;24936;46.328;11.026;2022-12-18T02:00:25;95411.59;;;-6.88;93.72
39223;BME280;24936;46.328;11.026;2022-12-18T02:02:52;95411.56;;;-6.85;94.13
39223;BME280;24936;46.328;11.026;2022-12-18T02:05:26;95409.75;;;-6.72;94.04
39223;BME280;24936;46.328;11.026;2022-12-18T02:08:48;95413.19;;;-6.73;93.71
39223;BME280;24936;46.328;11.026;2022-12-18T02:14:33;95420.97;;;-6.85;93.87
39223;BME280;24936;46.328;11.026;2022-12-18T02:17:21;95414.94;;;-6.78;93.37
39223;BME280;24936;46.328;11.026;2022-12-18T02:28:11;95420.94;;;-6.81;93.05
39223;BME280;24936;46.328;11.026;2022-12-18T02:30:39;95428.59;;;-6.78;93.26
39223;BME280;24936;46.328;11.026;2022-12-18T02:33:08;95431.19;;;-6.84;93.29
39223;BME280;24936;46.328;11.026;2022-12-18T02:35:35;95430.31;;;-6.77;93.20
39223;BME280;24936;46.328;11.026;2022-12-18T02:38:01;95429.28;;;-6.60;93.49
39223;BME280;24936;46.328;11.026;2022-12-18T02:40:28;95435.25;;;-6.61;93.03
39223;BME280;24936;46.328;11.026;2022-12-18T02:42:55;95432.63;;;-6.49;92.83
39223;BME280;24936;46.328;11.026;2022-12-18T02:45:20;95446.56;;;-6.87;92.50
39223;BME280;24936;46.328;11.026;2022-12-18T02:47:47;95439.91;;;-7.07;92.02
39223;BME280;24936;46.328;11.026;2022-12-18T02:50:42;95442.22;;;-6.74;93.19
39223;BME280;24936;46.328;11.026;2022-12-18T02:53:18;95451.72;;;-6.92;93.04
39223;BME280;24936;46.328;11.026;2022-12-18T02:56:10;95450.06;;;-6.94;92.81
39223;BME280;24936;46.328;11.026;2022-12-18T03:04:39;95455.25;;;-7.07;92.76
39223;BME280;24936;46.328;11.026;2022-12-18T03:07:16;95457.72;;;-6.96;92.91
39223;BME280;24936;46.328;11.026;2022-12-18T03:09:47;95455.09;;;-6.85;93.59
39223;BME280;24936;46.328;11.026;2022-12-18T03:12:24;95460.38;;;-7.03;93.45
39223;BME280;24936;46.328;11.026;2022-12-18T03:17:25;95457.06;;;-7.27;93.19
39223;BME280;24936;46.328;11.026;2022-12-18T03:19:53;95463.94;;;-7.32;93.39
39223;BME280;24936;46.328;11.026;2022-12-18T03:22:22;95462.16;;;-7.19;93.54
39223;BME280;24936;46.328;11.026;2022-12-18T03:24:49;95460.97;;;-6.70;93.59
39223;BME280;24936;46.328;11.026;2022-12-18T03:27:17;95467.91;;;-6.85;93.21
39223;BME280;24936;46.328;11.026;2022-12-18T03:29:52;95467.91;;;-6.88;93.36
39223;BME280;24936;46.328;11.026;2022-12-18T03:32:35;95472.28;;;-7.01;93.48
39223;BME280;24936;46.328;11.026;2022-12-18T03:35:05;95474.97;;;-7.21;92.80
39223;BME280;24936;46.328;11.026;2022-12-18T03:37:32;95481.75;;;-7.14;93.37
39223;BME280;24936;46.328;11.026;2022-12-18T03:39:58;95484.13;;;-6.89;93.17
39223;BME280;24936;46.328;11.026;2022-12-18T03:42:52;95481.69;;;-7.03;93.07
39223;BME280;24936;46.328;11.026;2022-12-18T03:45:30;95478.31;;;-7.07;93.17
39223;BME280;24936;46.328;11.026;2022-12-18T03:51:32;95485.97;;;-7.07;93.28
39223;BME280;24936;46.328;11.026;2022-12-18T03:54:03;95484.28;;;-7.14;93.43
39223;BME280;24936;46.328;11.026;2022-12-18T03:56:33;95480.13;;;-7.26;93.24
39223;BME280;24936;46.328;11.026;2022-12-18T03:59:02;95497.31;;;-7.56;92.75
39223;BME280;24936;46.328;11.026;2022-12-18T04:01:34;95493.00;;;-7.46;93.29
39223;BME280;24936;46.328;11.026;2022-12-18T04:04:01;95494.69;;;-7.42;93.16
39223;BME280;24936;46.328;11.026;2022-12-18T04:06:28;95498.19;;;-7.64;93.09
39223;BME280;24936;46.328;11.026;2022-12-18T04:08:56;95502.53;;;-7.97;92.99
39223;BME280;24936;46.328;11.026;2022-12-18T04:11:22;95505.94;;;-7.95;92.66
39223;BME280;24936;46.328;11.026;2022-12-18T04:13:47;95508.47;;;-7.86;92.98
39223;BME280;24936;46.328;11.026;2022-12-18T04:16:13;95508.47;;;-7.80;93.15
39223;BME280;24936;46.328;11.026;2022-12-18T04:18:38;95510.13;;;-7.60;93.58
39223;BME280;24936;46.328;11.026;2022-12-18T04:21:04;95515.97;;;-7.33;93.52
39223;BME280;24936;46.328;11.026;2022-12-18T04:23:32;95516.84;;;-7.41;93.57
39223;BME280;24936;46.328;11.026;2022-12-18T04:25:58;95522.94;;;-7.68;93.34
39223;BME280;24936;46.328;11.026;2022-12-18T04:28:23;95522.91;;;-7.70;93.20
39223;BME280;24936;46.328;11.026;2022-12-18T04:30:49;95531.50;;;-7.91;93.07
39223;BME280;24936;46.328;11.026;2022-12-18T04:33:18;95544.31;;;-8.02;93.06
39223;BME280;24936;46.328;11.026;2022-12-18T04:35:43;95528.09;;;-7.84;92.97
39223;BME280;24936;46.328;11.026;2022-12-18T04:38:09;95534.91;;;-7.87;93.32
39223;BME280;24936;46.328;11.026;2022-12-18T04:40:36;95541.75;;;-8.16;93.32
39223;BME280;24936;46.328;11.026;2022-12-18T04:43:01;95540.06;;;-8.17;93.11
39223;BME280;24936;46.328;11.026;2022-12-18T04:45:27;95541.75;;;-8.08;93.33
39223;BME280;24936;46.328;11.026;2022-12-18T04:47:52;95540.03;;;-8.00;92.99
39223;BME280;24936;46.328;11.026;2022-12-18T04:50:18;95546.03;;;-8.16;93.13
39223;BME280;24936;46.328;11.026;2022-12-18T04:52:43;95552.84;;;-8.34;92.55
39223;BME280;24936;46.328;11.026;2022-12-18T04:55:08;95561.38;;;-8.27;92.64
39223;BME280;24936;46.328;11.026;2022-12-18T04:57:34;95562.19;;;-8.19;93.17
39223;BME280;24936;46.328;11.026;2022-12-18T04:59:59;95557.91;;;-7.84;93.68
39223;BME280;24936;46.328;11.026;2022-12-18T05:02:25;95569.00;;;-8.01;93.37
39223;BME280;24936;46.328;11.026;2022-12-18T05:04:50;95575.84;;;-8.10;93.38
39223;BME280;24936;46.328;11.026;2022-12-18T05:07:15;95575.84;;;-8.24;93.34
39223;BME280;24936;46.328;11.026;2022-12-18T05:09:41;95585.19;;;-8.47;93.08
39223;BME280;24936;46.328;11.026;2022-12-18T05:12:06;95585.19;;;-8.43;93.17
39223;BME280;24936;46.328;11.026;2022-12-18T05:14:32;95582.69;;;-8.50;92.97
39223;BME280;24936;46.328;11.026;2022-12-18T05:16:57;95580.94;;;-8.55;92.96
39223;BME280;24936;46.328;11.026;2022-12-18T05:19:22;95588.63;;;-8.46;92.81
39223;BME280;24936;46.328;11.026;2022-12-18T05:21:48;95576.69;;;-8.29;92.74
39223;BME280;24936;46.328;11.026;2022-12-18T05:24:13;95588.59;;;-8.40;92.70
39223;BME280;24936;46.328;11.026;2022-12-18T05:26:38;95587.75;;;-8.36;92.80
39223;BME280;24936;46.328;11.026;2022-12-18T05:29:04;95592.00;;;-7.93;92.99
39223;BME280;24936;46.328;11.026;2022-12-18T05:31:29;95600.53;;;-8.11;92.46
39223;BME280;24936;46.328;11.026;2022-12-18T05:33:55;95594.56;;;-8.15;92.47
39223;BME280;24936;46.328;11.026;2022-12-18T05:36:23;95597.13;;;-8.32;92.53
39223;BME280;24936;46.328;11.026;2022-12-18T05:38:48;95603.09;;;-7.92;93.00
39223;BME280;24936;46.328;11.026;2022-12-18T05:41:14;95597.13;;;-7.84;93.03
39223;BME280;24936;46.328;11.026;2022-12-18T05:43:43;95606.50;;;-7.90;92.53
39223;BME280;24936;46.328;11.026;2022-12-18T05:46:13;95611.63;;;-8.10;92.44
39223;BME280;24936;46.328;11.026;2022-12-18T05:48:39;95609.06;;;-8.12;92.51
39223;BME280;24936;46.328;11.026;2022-12-18T05:51:07;95611.63;;;-8.18;92.70
39223;BME280;24936;46.328;11.026;2022-12-18T05:53:34;95613.34;;;-8.22;92.58
39223;BME280;24936;46.328;11.026;2022-12-18T05:56:02;95618.44;;;-8.05;92.74
39223;BME280;24936;46.328;11.026;2022-12-18T05:58:28;95623.56;;;-8.09;92.88
39223;BME280;24936;46.328;11.026;2022-12-18T06:00:53;95621.81;;;-7.96;92.54
39223;BME280;24936;46.328;11.026;2022-12-18T06:03:18;95625.22;;;-8.05;92.81
39223;BME280;24936;46.328;11.026;2022-12-18T06:05:45;95631.19;;;-8.14;92.40
39223;BME280;24936;46.328;11.026;2022-12-18T06:08:11;95632.91;;;-8.32;92.31
39223;BME280;24936;46.328;11.026;2022-12-18T06:10:37;95629.50;;;-8.21;92.40
39223;BME280;24936;46.328;11.026;2022-12-18T06:13:02;95639.72;;;-7.90;93.13
39223;BME280;24936;46.328;11.026;2022-12-18T06:15:28;95631.19;;;-7.95;92.73
39223;BME280;24936;46.328;11.026;2022-12-18T06:17:53;95639.72;;;-8.09;92.61
39223;BME280;24936;46.328;11.026;2022-12-18T06:20:19;95639.72;;;-8.21;92.43
39223;BME280;24936;46.328;11.026;2022-12-18T06:22:45;95652.47;;;-8.34;92.21
39223;BME280;24936;46.328;11.026;2022-12-18T06:25:10;95642.25;;;-8.43;92.56
39223;BME280;24936;46.328;11.026;2022-12-18T06:27:36;95651.59;;;-8.42;92.27
39223;BME280;24936;46.328;11.026;2022-12-18T06:30:02;95653.31;;;-8.58;92.07
39223;BME280;24936;46.328;11.026;2022-12-18T06:32:27;95655.88;;;-8.53;91.92
39223;BME280;24936;46.328;11.026;2022-12-18T06:34:53;95659.28;;;-8.34;92.78
39223;BME280;24936;46.328;11.026;2022-12-18T06:37:22;95655.88;;;-8.50;92.44
39223;BME280;24936;46.328;11.026;2022-12-18T06:39:51;95654.19;;;-8.56;92.42
39223;BME280;24936;46.328;11.026;2022-12-18T06:42:16;95666.91;;;-8.67;92.38
39223;BME280;24936;46.328;11.026;2022-12-18T06:44:42;95666.91;;;-8.68;92.94
39223;BME280;24936;46.328;11.026;2022-12-18T06:47:07;95664.41;;;-8.48;92.52
39223;BME280;24936;46.328;11.026;2022-12-18T06:49:33;95666.13;;;-8.19;93.30
39223;BME280;24936;46.328;11.026;2022-12-18T06:51:58;95664.41;;;-7.58;93.28
39223;BME280;24936;46.328;11.026;2022-12-18T06:54:23;95667.84;;;-7.65;92.52
39223;BME280;24936;46.328;11.026;2022-12-18T06:56:49;95670.41;;;-7.82;92.33
39223;BME280;24936;46.328;11.026;2022-12-18T06:59:14;95672.09;;;-7.88;92.21
39223;BME280;24936;46.328;11.026;2022-12-18T07:01:40;95678.91;;;-7.97;92.10
39223;BME280;24936;46.328;11.026;2022-12-18T07:04:05;95674.66;;;-7.83;92.26
39223;BME280;24936;46.328;11.026;2022-12-18T07:06:30;95676.34;;;-8.22;91.93
39223;BME280;24936;46.328;11.026;2022-12-18T07:08:56;95679.75;;;-8.19;91.80
39223;BME280;24936;46.328;11.026;2022-12-18T07:11:22;95687.41;;;-8.14;92.03
39223;BME280;24936;46.328;11.026;2022-12-18T07:13:47;95697.63;;;-8.33;91.65
39223;BME280;24936;46.328;11.026;2022-12-18T07:16:15;95695.03;;;-8.42;91.47
39223;BME280;24936;46.328;11.026;2022-12-18T07:18:41;95693.34;;;-8.34;92.03
39223;BME280;24936;46.328;11.026;2022-12-18T07:21:12;95706.97;;;-8.33;91.66
39223;BME280;24936;46.328;11.026;2022-12-18T07:23:38;95706.94;;;-8.53;91.95
39223;BME280;24936;46.328;11.026;2022-12-18T07:26:05;95710.34;;;-8.59;91.66
39223;BME280;24936;46.328;11.026;2022-12-18T07:28:32;95714.63;;;-8.52;91.93
39223;BME280;24936;46.328;11.026;2022-12-18T07:30:58;95710.38;;;-8.57;91.80
39223;BME280;24936;46.328;11.026;2022-12-18T07:33:24;95720.59;;;-8.50;91.80
39223;BME280;24936;46.328;11.026;2022-12-18T07:35:49;95718.09;;;-8.22;92.06
39223;BME280;24936;46.328;11.026;2022-12-18T07:38:15;95719.78;;;-8.19;91.68
39223;BME280;24936;46.328;11.026;2022-12-18T07:40:40;95722.34;;;-8.19;91.49
39223;BME280;24936;46.328;11.026;2022-12-18T07:43:05;95729.16;;;-8.17;91.65
39223;BME280;24936;46.328;11.026;2022-12-18T07:45:31;95743.66;;;-8.09;91.73
39223;BME280;24936;46.328;11.026;2022-12-18T07:47:56;95741.13;;;-8.09;91.74
39223;BME280;24936;46.328;11.026;2022-12-18T07:50:22;95740.25;;;-8.10;91.37
39223;BME280;24936;46.328;11.026;2022-12-18T07:52:47;95747.94;;;-8.08;91.35
39223;BME280;24936;46.328;11.026;2022-12-18T07:55:12;95748.81;;;-7.83;92.17
39223;BME280;24936;46.328;11.026;2022-12-18T07:57:38;95744.56;;;-7.45;91.90
39223;BME280;24936;46.328;11.026;2022-12-18T08:00:04;95757.28;;;-7.00;91.93
39223;BME280;24936;46.328;11.026;2022-12-18T08:02:31;95753.00;;;-6.84;91.95
39223;BME280;24936;46.328;11.026;2022-12-18T08:04:56;95758.16;;;-7.01;91.18
39223;BME280;24936;46.328;11.026;2022-12-18T08:07:22;95761.53;;;-6.95;91.43
39223;BME280;24936;46.328;11.026;2022-12-18T08:09:50;95760.69;;;-6.86;91.18
39223;BME280;24936;46.328;11.026;2022-12-18T08:12:16;95772.63;;;-6.85;91.26
39223;BME280;24936;46.328;11.026;2022-12-18T08:14:41;95777.69;;;-6.55;91.51
39223;BME280;24936;46.328;11.026;2022-12-18T08:17:06;95773.34;;;-6.36;91.07
39223;BME280;24936;46.328;11.026;2022-12-18T08:19:32;95774.13;;;-6.22;91.01
39223;BME280;24936;46.328;11.026;2022-12-18T08:21:57;95777.53;;;-6.20;90.46
39223;BME280;24936;46.328;11.026;2022-12-18T08:24:23;95786.91;;;-6.19;90.43
39223;BME280;24936;46.328;11.026;2022-12-18T08:26:48;95788.59;;;-6.08;90.21
39223;BME280;24936;46.328;11.026;2022-12-18T08:29:14;95782.44;;;-5.86;89.80
39223;BME280;24936;46.328;11.026;2022-12-18T08:31:39;95789.97;;;-5.58;88.89
39223;BME280;24936;46.328;11.026;2022-12-18T08:34:04;95786.44;;;-5.41;88.34
39223;BME280;24936;46.328;11.026;2022-12-18T08:36:30;95783.06;;;-5.48;88.04
39223;BME280;24936;46.328;11.026;2022-12-18T08:38:56;95790.59;;;-5.26;87.15
39223;BME280;24936;46.328;11.026;2022-12-18T08:41:22;95781.72;;;-4.93;86.93
39223;BME280;24936;46.328;11.026;2022-12-18T08:43:48;95784.28;;;-4.89;86.44
39223;BME280;24936;46.328;11.026;2022-12-18T08:46:37;95789.16;;;-4.65;86.31
39223;BME280;24936;46.328;11.026;2022-12-18T08:49:04;95785.78;;;-4.67;86.05
39223;BME280;24936;46.328;11.026;2022-12-18T08:51:29;95782.25;;;-4.58;85.49
39223;BME280;24936;46.328;11.026;2022-12-18T08:53:55;95779.44;;;-3.69;83.93
39223;BME280;24936;46.328;11.026;2022-12-18T08:56:20;95779.88;;;-2.86;81.56
39223;BME280;24936;46.328;11.026;2022-12-18T08:58:45;95779.84;;;-2.37;79.36
39223;BME280;24936;46.328;11.026;2022-12-18T09:01:12;95776.72;;;-1.31;75.19
39223;BME280;24936;46.328;11.026;2022-12-18T09:03:38;95775.50;;;1.00;76.90
39223;BME280;24936;46.328;11.026;2022-12-18T09:06:04;95781.06;;;0.33;70.27
39223;BME280;24936;46.328;11.026;2022-12-18T09:08:30;95779.34;;;0.88;76.28
39223;BME280;24936;46.328;11.026;2022-12-18T09:10:56;95787.75;;;0.40;69.61
39223;BME280;24936;46.328;11.026;2022-12-18T09:13:22;95784.69;;;1.37;73.01
39223;BME280;24936;46.328;11.026;2022-12-18T09:15:50;95790.31;;;0.97;71.47
39223;BME280;24936;46.328;11.026;2022-12-18T09:18:17;95783.13;;;2.98;65.94
39223;BME280;24936;46.328;11.026;2022-12-18T09:20:43;95786.31;;;4.48;60.16
39223;BME280;24936;46.328;11.026;2022-12-18T09:23:09;95786.91;;;5.63;61.87
39223;BME280;24936;46.328;11.026;2022-12-18T09:25:35;95784.91;;;4.97;56.98
39223;BME280;24936;46.328;11.026;2022-12-18T09:28:15;95794.25;;;4.45;58.00
39223;BME280;24936;46.328;11.026;2022-12-18T09:30:43;95791.00;;;4.40;57.97
39223;BME280;24936;46.328;11.026;2022-12-18T09:33:09;95782.13;;;4.25;57.97
39223;BME280;24936;46.328;11.026;2022-12-18T09:35:44;95783.31;;;5.48;54.96
39223;BME280;24936;46.328;11.026;2022-12-18T09:38:16;95780.97;;;5.07;57.13
39223;BME280;24936;46.328;11.026;2022-12-18T09:40:49;95781.53;;;5.49;55.23
39223;BME280;24936;46.328;11.026;2022-12-18T09:43:28;95785.22;;;5.62;52.27
39223;BME280;24936;46.328;11.026;2022-12-18T09:45:59;95776.38;;;5.47;54.96
39223;BME280;24936;46.328;11.026;2022-12-18T09:48:36;95770.88;;;6.38;53.28
39223;BME280;24936;46.328;11.026;2022-12-18T09:51:20;95770.13;;;7.00;51.35
39223;BME280;24936;46.328;11.026;2022-12-18T09:53:53;95766.59;;;7.01;51.89
39223;BME280;24936;46.328;11.026;2022-12-18T09:56:20;95765.25;;;7.41;50.77
39223;BME280;24936;46.328;11.026;2022-12-18T09:59:02;95774.72;;;7.58;51.96
39223;BME280;24936;46.328;11.026;2022-12-18T10:01:29;95763.38;;;7.88;45.58
39223;BME280;24936;46.328;11.026;2022-12-18T10:03:55;95765.28;;;8.58;43.55
39223;BME280;24936;46.328;11.026;2022-12-18T10:08:56;95760.00;;;9.00;41.73
39223;BME280;24936;46.328;11.026;2022-12-18T10:11:48;95757.78;;;9.61;38.42
39223;BME280;24936;46.328;11.026;2022-12-18T10:19:51;95750.53;;;7.69;43.97
39223;BME280;24936;46.328;11.026;2022-12-18T10:22:22;95743.34;;;7.42;43.09
39223;BME280;24936;46.328;11.026;2022-12-18T10:27:38;95746.53;;;4.99;51.80
39223;BME280;24936;46.328;11.026;2022-12-18T10:30:12;95741.97;;;5.04;50.16
39223;BME280;24936;46.328;11.026;2022-12-18T10:32:39;95737.25;;;4.93;52.48
39223;BME280;24936;46.328;11.026;2022-12-18T10:35:04;95737.03;;;4.04;53.66
39223;BME280;24936;46.328;11.026;2022-12-18T10:37:30;95739.69;;;3.83;55.83
39223;BME280;24936;46.328;11.026;2022-12-18T10:40:13;95721.16;;;4.29;53.77
39223;BME280;24936;46.328;11.026;2022-12-18T10:42:39;95727.44;;;4.04;55.67
39223;BME280;24936;46.328;11.026;2022-12-18T10:45:10;95730.81;;;3.06;58.07
39223;BME280;24936;46.328;11.026;2022-12-18T10:47:42;95733.47;;;2.60;59.40
39223;BME280;24936;46.328;11.026;2022-12-18T10:50:19;95729.53;;;2.94;60.07
39223;BME280;24936;46.328;11.026;2022-12-18T10:52:53;95731.28;;;3.36;59.12
39223;BME280;24936;46.328;11.026;2022-12-18T10:55:19;95725.91;;;4.57;55.60
39223;BME280;24936;46.328;11.026;2022-12-18T10:57:44;95726.19;;;4.88;53.17
39223;BME280;24936;46.328;11.026;2022-12-18T11:00:30;95719.41;;;5.03;52.87
39223;BME280;24936;46.328;11.026;2022-12-18T11:02:56;95717.66;;;4.48;53.62
39223;BME280;24936;46.328;11.026;2022-12-18T11:05:32;95715.31;;;5.32;50.86
39223;BME280;24936;46.328;11.026;2022-12-18T11:07:59;95720.91;;;5.60;49.03
39223;BME280;24936;46.328;11.026;2022-12-18T11:10:35;95711.75;;;7.74;45.83
39223;BME280;24936;46.328;11.026;2022-12-18T11:13:30;95711.69;;;7.75;43.80
39223;BME280;24936;46.328;11.026;2022-12-18T11:15:57;95707.09;;;7.79;45.67
39223;BME280;24936;46.328;11.026;2022-12-18T11:18:28;95722.06;;;8.35;43.29
39223;BME280;24936;46.328;11.026;2022-12-18T11:20:57;95722.75;;;7.05;47.91
39223;BME280;24936;46.328;11.026;2022-12-18T11:23:25;95716.47;;;8.55;43.39
39223;BME280;24936;46.328;11.026;2022-12-18T11:25:53;95712.19;;;7.37;44.94
39223;BME280;24936;46.328;11.026;2022-12-18T11:28:46;95703.50;;;7.51;46.68
39223;BME280;24936;46.328;11.026;2022-12-18T11:33:54;95717.06;;;4.97;55.32
39223;BME280;24936;46.328;11.026;2022-12-18T11:36:23;95716.53;;;4.53;54.90
39223;BME280;24936;46.328;11.026;2022-12-18T11:38:52;95706.19;;;5.24;54.02
39223;BME280;24936;46.328;11.026;2022-12-18T11:43:55;95707.88;;;5.07;54.00
39223;BME280;24936;46.328;11.026;2022-12-18T11:46:30;95709.66;;;5.24;53.03
39223;BME280;24936;46.328;11.026;2022-12-18T11:51:28;95711.09;;;3.81;58.04
39223;BME280;24936;46.328;11.026;2022-12-18T11:53:57;95705.25;;;4.89;54.86
39223;BME280;24936;46.328;11.026;2022-12-18T11:56:43;95695.47;;;5.97;51.79
39223;BME280;24936;46.328;11.026;2022-12-18T11:59:30;95695.13;;;6.53;48.43
39223;BME280;24936;46.328;11.026;2022-12-18T12:02:13;95689.50;;;6.91;49.50
39223;BME280;24936;46.328;11.026;2022-12-18T12:07:55;95696.56;;;7.35;46.79
39223;BME280;24936;46.328;11.026;2022-12-18T12:21:33;95694.13;;;5.56;51.27
39223;BME280;24936;46.328;11.026;2022-12-18T12:38:22;95687.47;;;6.96;47.33
39223;BME280;24936;46.328;11.026;2022-12-18T12:41:03;95688.13;;;6.53;47.30
39223;BME280;24936;46.328;11.026;2022-12-18T12:43:37;95678.16;;;7.07;47.35
39223;BME280;24936;46.328;11.026;2022-12-18T12:46:07;95683.75;;;7.00;46.56
39223;BME280;24936;46.328;11.026;2022-12-18T12:51:20;95687.88;;;6.58;45.66
39223;BME280;24936;46.328;11.026;2022-12-18T12:53:46;95685.19;;;8.09;43.37
39223;BME280;24936;46.328;11.026;2022-12-18T12:56:17;95682.47;;;7.96;43.74
39223;BME280;24936;46.328;11.026;2022-12-18T12:58:58;95685.56;;;7.74;44.92
39223;BME280;24936;46.328;11.026;2022-12-18T13:07:14;95681.56;;;6.77;47.40
39223;BME280;24936;46.328;11.026;2022-12-18T13:20:40;95654.06;;;5.89;48.39
39223;BME280;24936;46.328;11.026;2022-12-18T13:25:45;95669.66;;;5.57;49.70
39223;BME280;24936;46.328;11.026;2022-12-18T13:28:13;95664.16;;;6.29;48.53
39223;BME280;24936;46.328;11.026;2022-12-18T13:43:48;95684.31;;;1.38;62.13
39223;BME280;24936;46.328;11.026;2022-12-18T13:46:29;95685.19;;;0.61;64.06
39223;BME280;24936;46.328;11.026;2022-12-18T13:51:42;95677.63;;;0.26;67.33
39223;BME280;24936;46.328;11.026;2022-12-18T13:56:48;95682.47;;;0.09;69.43
39223;BME280;24936;46.328;11.026;2022-12-18T13:59:19;95681.69;;;0.07;69.00
39223;BME280;24936;46.328;11.026;2022-12-18T14:01:55;95682.28;;;0.15;68.66
39223;BME280;24936;46.328;11.026;2022-12-18T14:04:23;95684.28;;;0.07;71.21
39223;BME280;24936;46.328;11.026;2022-12-18T14:06:52;95684.31;;;0.05;69.17
39223;BME280;24936;46.328;11.026;2022-12-18T14:09:24;95678.69;;;-0.09;69.60
39223;BME280;24936;46.328;11.026;2022-12-18T14:11:51;95677.06;;;-0.12;70.87
39223;BME280;24936;46.328;11.026;2022-12-18T14:14:18;95683.75;;;-0.35;70.41
39223;BME280;24936;46.328;11.026;2022-12-18T14:16:45;95690.59;;;-0.64;70.94
39223;BME280;24936;46.328;11.026;2022-12-18T14:19:17;95694.03;;;-0.63;70.58
39223;BME280;24936;46.328;11.026;2022-12-18T14:21:49;95686.56;;;-0.74;71.35
39223;BME280;24936;46.328;11.026;2022-12-18T14:24:21;95692.06;;;-0.86;71.32
39223;BME280;24936;46.328;11.026;2022-12-18T14:26:48;95695.91;;;-1.01;72.88
39223;BME280;24936;46.328;11.026;2022-12-18T14:29:25;95702.28;;;-1.16;75.30
39223;BME280;24936;46.328;11.026;2022-12-18T14:34:31;95696.28;;;-1.53;76.57
39223;BME280;24936;46.328;11.026;2022-12-18T14:36:57;95698.09;;;-1.55;76.40
39223;BME280;24936;46.328;11.026;2022-12-18T14:39:22;95710.66;;;-1.77;77.04
39223;BME280;24936;46.328;11.026;2022-12-18T14:41:50;95693.66;;;-1.88;77.96
39223;BME280;24936;46.328;11.026;2022-12-18T14:44:16;95707.38;;;-1.86;77.88
39223;BME280;24936;46.328;11.026;2022-12-18T14:46:44;95704.06;;;-1.91;78.20
39223;BME280;24936;46.328;11.026;2022-12-18T14:49:29;95701.66;;;-2.00;78.64
39223;BME280;24936;46.328;11.026;2022-12-18T14:52:00;95711.25;;;-2.05;78.17
39223;BME280;24936;46.328;11.026;2022-12-18T14:54:27;95713.22;;;-2.17;78.85
39223;BME280;24936;46.328;11.026;2022-12-18T14:59:29;95727.19;;;-2.27;78.98
39223;BME280;24936;46.328;11.026;2022-12-18T15:02:02;95720.47;;;-2.36;78.84